Text Box: All records at near 07:00 local time
Kleivo 1 weather for Mar 2011
Month no. 52
Obs.
Da.
Temp. Dew Point Precip. Wind
Speed
Wind gusts Cloud cover Press. Humidity Wind dir. Sunny OPT
01.03.2011 1,3 -0,6 0,0 8,0 9,7 0 1018,6 89,0 135,0   50,0 %
02.03.2011 2,2 0,5 0,0 27,4 20,9 1 1021,7 83,0 135,0   40,0 %
03.03.2011 1,4 -0,6 0,5 3,2 12,9 0 1016,6 89,0 135,0   55,0 %
04.03.2011 1,8 -3,0 0,0 8,0 4,8 0 1011,2 89,0 135,0   50,0 %
05.03.2011 0,4 -3,7 0,5 0,0 16,1 4 1005,1 88,0     65,0 %
06.03.2011 -5,2 -2,1 0,0 0,0 4,8 10 1011,9 85,0     75,0 %
07.03.2011 1,2 -0,5 0,5 8,0 19,3 0 1009,8 88,0 135,0   50,0 %
08.03.2011 2,1 -1,7 0,0 14,5 1,6 0 997,3 89,0 135,0   47,5 %
09.03.2011 1,0 0,9 1,5 12,9 12,9 4 973,6 89,0 157,5   57,5 %
10.03.2011 -1,4 -11,3 0,0 8,0 29,0 1 972,2 89,0 67,5   50,0 %
11.03.2011 -0,7 -8,9 0,0 19,3 12,9 1 975,3 80,0 22,5   42,5 %
12.03.2011 -0,3 -1,5 0,0 4,8 0,0 1 983,4 88,0 112,5   52,5 %
13.03.2011 1,3 -0,6 0,5 16,1 1,6 1 982,4 88,0 112,5   47,5 %
14.03.2011 -0,1 1,2 0,0 1,6 20,9 1 995,3 89,0 0,0   55,0 %
15.03.2011 4,4 3,8 0,0 12,9 3,2 1 1007,1 78,0 112,5   52,5 %
16.03.2011 5,8 4,5 0,0 27,4 0,0 1 1006,8 28,0 112,5   45,0 %
17.03.2011 2,8 2,3 0,0 12,9 11,3 1 998,6 42,0 135,0   52,5 %
18.03.2011 0,1 3,2 0,0 0,0 4,8 1 995,6 89,0     57,5 %
19.03.2011 1,0 -3,5 0,5 3,2 0,0 1 1004,4 89,0 90,0   57,5 %
20.03.2011 3,2 -8,0 0,5 11,3 0,0 1 1006,4 87,0 157,5   52,5 %
21.03.2011 5,3 -1,5 10,2 3,2 9,7 1 1001,4 90,0 202,5   55,0 %
22.03.2011 6,2 -2,8 3,6 0,0 0,0 1 1003,4 89,0     60,0 %
23.03.2011 4,5 0,0 0,0 11,3 14,5 1 1014,2 86,0 225,0   52,5 %
24.03.2011 4,8 -5,2 0,0 3,2 1,6 1 1008,5 89,0 337,5   60,0 %
25.03.2011 -1,8 0,3 0,0 0,0 32,2 1 1000,3 88,0     55,0 %
26.03.2011 -6,2 1,8 0,0 0,0 14,5 1 1000,7 87,0     52,5 %
27.03.2011 0,1 6,4 0,0 8,0 11,3 1 992,6 89,0 157,5   52,5 %
28.03.2011 -1,2 2,2 0,0 0,0 1,6 1 992,9 89,0     55,0 %
29.03.2011 1,6 2,4 1,0 12,9 3,2 1 985,8 89,0 337,5   50,0 %
30.03.2011 -3,5   0,0 1,6   1 994,6 88,0 0,0   52,5 %
31.03.2011 3,8   0,5 27,4   1 986,8 78,0 135,0   42,5 %
Avrg/Sum 1,2 -0,9 19,8 8,6 9,5 1,3 999,2 83,8 136,9   53,0 %